Terminal Aerodrome Forecast
Issued by NWS

Home | Current Version | Previous Version | Text Only | Print | Product List | Glossary On
Versions: 1 2 3 4 5 6 7 8 9 10 11 12 13 14 15 16 17 18 19 20 21 22 23 24 25 26 27 28 29
000
FTUS41 KRNK 281125
TAFLWB
TAF
KLWB 281125Z 2812/0112 03004KT P6SM BKN100
     FM281600 02004KT P6SM SCT020 BKN060
     FM281800 00000KT P6SM SCT025 OVC050
     FM282100 VRB03KT P6SM BKN030 BKN100
     FM010100 05003KT P6SM OVC015=

USA.gov is the U.S. government's official web portal to all federal, state and local government web resources and services.